EGPC

Wick Airport

Wick, United Kingdom
METAR EGPC 171620Z 20010KT 9999 FEW026 15/11 Q1003
Observed Flight Rules
Aug-17 @ 16:20 UTC (32 minutes ago) Visual Flight Rules
Wind Visibility Clouds
200° at 10 knots 10,000+ meters
  • Few at 2,600' AGL
Temperatures Readings
Current 15°C / 59°F
Dewpoint 11°C / 52°F
Humidity 77%
Altimeter 29.62" Hg
Pressure 1003 hPa
Elevation 39
METAR EGPC 171620Z 20010KT 9999 FEW026 15/11 Q1003
Observed Flight Rules
Aug-17 @ 16:20 UTC
(32 minutes ago)
VFR
Wind Visibility
200° at 10 knots 10,000+ meters
Clouds
  • Few at 2,600' AGL
Temperature Dewpoint
15°C / 59°F 11°C / 52°F
Humidity Altimeter Pressure
77% 29.62" Hg 1003 hPa